Time;durP1;ratioP1;P1;durP2;ratioP2;P2;SDS_P1;SDS_P2;PMS_P1;PMS_P2;Temp;Humidity;BMP_temperature;BMP_pressure;BME280_temperature;BME280_humidity;BME280_pressure;Samples;Min_cycle;Max_cycle;Signal;HPM_P1;HPM_P2
2023/03/21 00:00:12;;;;;;;37.63;23.63;;;;;;;;;;5039893;28;20195;-85
2023/03/21 00:02:38;;;;;;;34.43;24.53;;;;;;;;;;5047690;28;20188;-85
2023/03/21 00:05:04;;;;;;;35.17;24.73;;;;;;;;;;5049315;28;20231;-85
2023/03/21 00:07:30;;;;;;;38.17;24.37;;;;;;;;;;5039913;28;20186;-82
2023/03/21 00:09:56;;;;;;;35.43;25.03;;;;;;;;;;5035917;28;20256;-83
2023/03/21 00:12:22;;;;;;;34.37;24.93;;;;;;;;;;5050670;28;20274;-82
2023/03/21 00:14:49;;;;;;;36.93;26.13;;;;;;;;;;5037099;28;20307;-82
2023/03/21 00:17:15;;;;;;;35.10;25.27;;;;;;;;;;5039494;28;20198;-82
2023/03/21 00:19:43;;;;;;;35.07;26.87;;;;;;;;;;5039003;28;20206;-82
2023/03/21 00:22:09;;;;;;;38.40;28.57;;;;;;;;;;5055329;28;20179;-83
2023/03/21 00:24:36;;;;;;;41.53;28.47;;;;;;;;;;5055714;28;20183;-83
2023/03/21 00:27:02;;;;;;;44.70;29.53;;;;;;;;;;5072460;28;20190;-82
2023/03/21 00:29:28;;;;;;;47.20;29.97;;;;;;;;;;5038938;28;20281;-82
2023/03/21 00:31:54;;;;;;;37.73;29.33;;;;;;;;;;5072640;28;20286;-83
2023/03/21 00:34:20;;;;;;;37.67;28.37;;;;;;;;;;5039666;28;20306;-82
2023/03/21 00:36:46;;;;;;;40.73;30.43;;;;;;;;;;5039768;28;20218;-83
2023/03/21 00:39:13;;;;;;;39.90;29.40;;;;;;;;;;5040386;28;20255;-79
2023/03/21 00:41:39;;;;;;;40.03;30.13;;;;;;;;;;5034044;28;20179;-79
2023/03/21 00:44:05;;;;;;;39.97;29.33;;;;;;;;;;5056295;28;20210;-79
2023/03/21 00:46:31;;;;;;;37.13;29.40;;;;;;;;;;5039197;28;20180;-79
2023/03/21 00:48:57;;;;;;;37.17;28.87;;;;;;;;;;5028633;28;20192;-79
2023/03/21 00:51:26;;;;;;;41.63;28.37;;;;;;;;;;5039080;28;20340;-79
2023/03/21 00:53:54;;;;;;;35.30;27.63;;;;;;;;;;5072191;28;20214;-79
2023/03/21 00:56:20;;;;;;;39.80;27.83;;;;;;;;;;5044346;28;20179;-79
2023/03/21 00:58:46;;;;;;;40.27;27.97;;;;;;;;;;5053753;28;20180;-79
2023/03/21 01:01:12;;;;;;;47.00;27.73;;;;;;;;;;5034159;28;20183;-79
2023/03/21 01:03:41;;;;;;;36.63;26.53;;;;;;;;;;5055021;28;20184;-79
2023/03/21 01:06:12;;;;;;;35.23;26.83;;;;;;;;;;5036246;28;20242;-79
2023/03/21 01:08:42;;;;;;;32.87;26.30;;;;;;;;;;5026833;28;20208;-79
2023/03/21 01:11:10;;;;;;;36.20;26.23;;;;;;;;;;5072149;28;20209;-79
2023/03/21 01:13:36;;;;;;;35.43;24.97;;;;;;;;;;5055466;28;20195;-83
2023/03/21 01:16:04;;;;;;;31.53;24.13;;;;;;;;;;5055633;28;20237;-83
2023/03/21 01:18:30;;;;;;;33.77;25.23;;;;;;;;;;5054794;28;20229;-83
2023/03/21 01:20:57;;;;;;;34.23;25.70;;;;;;;;;;5046616;28;20188;-83
2023/03/21 01:23:23;;;;;;;32.83;24.17;;;;;;;;;;5041298;28;20201;-83
2023/03/21 01:25:50;;;;;;;28.40;23.23;;;;;;;;;;5055074;28;20230;-83
2023/03/21 01:28:16;;;;;;;30.90;24.83;;;;;;;;;;5058287;28;20178;-83
2023/03/21 01:30:46;;;;;;;27.30;24.13;;;;;;;;;;5042710;28;20183;-86
2023/03/21 01:33:12;;;;;;;27.53;22.83;;;;;;;;;;5072629;28;20180;-85
2023/03/21 01:35:38;;;;;;;29.80;23.70;;;;;;;;;;5043038;28;20179;-85
2023/03/21 01:38:04;;;;;;;33.37;24.73;;;;;;;;;;5059264;28;20172;-85
2023/03/21 01:40:30;;;;;;;26.93;22.37;;;;;;;;;;5048581;28;20266;-86
2023/03/21 01:42:56;;;;;;;33.13;23.37;;;;;;;;;;5038169;28;20191;-85
2023/03/21 01:45:41;;;;;;;33.93;21.83;;;;;;;;;;5058823;28;20256;-85
2023/03/21 01:48:07;;;;;;;28.97;22.20;;;;;;;;;;5119461;22;20235;-78
2023/03/21 01:50:33;;;;;;;31.67;22.97;;;;;;;;;;5050597;28;20176;-78
2023/03/21 01:53:00;;;;;;;33.93;22.47;;;;;;;;;;5033075;28;20196;-78
2023/03/21 01:55:26;;;;;;;30.57;22.53;;;;;;;;;;5041793;28;20195;-78
2023/03/21 01:57:54;;;;;;;29.37;22.60;;;;;;;;;;5051744;28;20187;-78
2023/03/21 02:00:23;;;;;;;32.27;23.83;;;;;;;;;;5051778;28;20187;-78
2023/03/21 02:02:53;;;;;;;31.00;23.07;;;;;;;;;;5048561;28;20211;-82
2023/03/21 02:05:23;;;;;;;33.57;23.80;;;;;;;;;;5064753;28;20189;-83
2023/03/21 02:07:54;;;;;;;31.57;23.27;;;;;;;;;;5049425;28;20183;-82
2023/03/21 02:10:20;;;;;;;31.33;23.50;;;;;;;;;;5065884;28;20187;-82
2023/03/21 02:12:46;;;;;;;29.60;23.40;;;;;;;;;;5069743;28;20272;-82
2023/03/21 02:15:13;;;;;;;31.47;23.80;;;;;;;;;;5034384;28;20265;-82
2023/03/21 02:17:42;;;;;;;36.67;25.43;;;;;;;;;;5053033;28;20179;-82
2023/03/21 02:20:21;;;;;;;29.83;23.77;;;;;;;;;;5044889;28;20199;-77
2023/03/21 02:22:47;;;;;;;32.13;24.43;;;;;;;;;;5043910;28;20251;-78
2023/03/21 02:25:20;;;;;;;33.27;24.23;;;;;;;;;;5072755;28;20207;-78
2023/03/21 02:28:06;;;;;;;29.70;23.67;;;;;;;;;;5058046;28;20183;-78
2023/03/21 02:30:35;;;;;;;31.67;24.00;;;;;;;;;;5057679;28;20191;-77
2023/03/21 02:33:08;;;;;;;32.33;25.70;;;;;;;;;;5058246;28;20194;-78
2023/03/21 02:35:52;;;;;;;36.00;26.20;;;;;;;;;;5065731;28;20240;-78
2023/03/21 02:38:31;;;;;;;33.13;26.93;;;;;;;;;;5052497;28;20180;-83
2023/03/21 02:40:57;;;;;;;35.30;26.33;;;;;;;;;;5051007;28;20186;-82
2023/03/21 02:43:37;;;;;;;31.93;26.57;;;;;;;;;;5057350;28;20226;-83
2023/03/21 02:46:09;;;;;;;36.37;27.00;;;;;;;;;;5072524;28;20183;-83
2023/03/21 02:48:39;;;;;;;37.57;27.07;;;;;;;;;;5061526;28;20225;-83
2023/03/21 02:51:06;;;;;;;40.20;28.63;;;;;;;;;;5075169;28;20270;-83
2023/03/21 02:53:34;;;;;;;34.40;27.27;;;;;;;;;;5072892;28;20211;-86
2023/03/21 02:56:01;;;;;;;34.70;27.50;;;;;;;;;;5062607;28;20189;-86
2023/03/21 02:58:29;;;;;;;36.10;27.07;;;;;;;;;;5055953;28;20183;-86
2023/03/21 03:00:55;;;;;;;35.40;27.27;;;;;;;;;;5074388;28;20262;-86
2023/03/21 03:03:22;;;;;;;34.10;27.30;;;;;;;;;;5039928;28;20183;-85
2023/03/21 03:05:49;;;;;;;34.93;26.07;;;;;;;;;;5040658;28;20191;-86
2023/03/21 03:08:38;;;;;;;34.10;27.97;;;;;;;;;;5057393;28;20183;-86
2023/03/21 03:11:12;;;;;;;36.07;26.23;;;;;;;;;;5056712;28;20213;-79
2023/03/21 03:13:44;;;;;;;34.17;26.37;;;;;;;;;;5056634;28;20284;-79
2023/03/21 03:16:14;;;;;;;34.67;26.90;;;;;;;;;;5048413;28;20189;-79
2023/03/21 03:18:43;;;;;;;39.20;26.03;;;;;;;;;;5070020;28;20276;-78
2023/03/21 03:21:15;;;;;;;32.27;27.07;;;;;;;;;;5055287;28;20179;-79
2023/03/21 03:23:49;;;;;;;32.23;25.50;;;;;;;;;;5053834;28;20232;-78
2023/03/21 03:26:19;;;;;;;29.47;24.93;;;;;;;;;;5052447;28;20222;-78
2023/03/21 03:28:52;;;;;;;34.37;24.80;;;;;;;;;;5070584;28;20191;-78
2023/03/21 03:31:24;;;;;;;30.83;24.67;;;;;;;;;;5065548;28;20188;-78
2023/03/21 03:33:52;;;;;;;32.00;23.10;;;;;;;;;;5061628;28;20215;-79
2023/03/21 03:36:20;;;;;;;29.07;23.83;;;;;;;;;;5069742;28;20225;-79
2023/03/21 03:38:48;;;;;;;33.60;24.77;;;;;;;;;;5048389;28;20172;-78
2023/03/21 03:41:17;;;;;;;34.90;24.90;;;;;;;;;;5069684;28;20186;-79
2023/03/21 03:43:49;;;;;;;31.13;24.87;;;;;;;;;;5056609;28;20184;-82
2023/03/21 03:46:21;;;;;;;32.77;24.10;;;;;;;;;;5067931;28;20184;-82
2023/03/21 03:48:54;;;;;;;33.23;23.53;;;;;;;;;;5049212;28;20231;-83
2023/03/21 03:51:43;;;;;;;31.50;22.47;;;;;;;;;;5049871;28;20207;-82
2023/03/21 03:54:16;;;;;;;31.20;22.37;;;;;;;;;;5040919;28;20223;-82
2023/03/21 03:56:42;;;;;;;27.23;19.63;;;;;;;;;;5050229;28;20203;-83
2023/03/21 03:59:09;;;;;;;28.67;20.63;;;;;;;;;;5062765;28;20240;-83
2023/03/21 04:01:35;;;;;;;32.63;20.37;;;;;;;;;;5049160;28;20411;-78
2023/03/21 04:04:01;;;;;;;31.43;20.83;;;;;;;;;;5030057;28;20254;-78
2023/03/21 04:06:27;;;;;;;29.30;20.07;;;;;;;;;;5044700;28;20275;-79
2023/03/21 04:08:57;;;;;;;29.07;19.10;;;;;;;;;;5047563;28;20213;-79
2023/03/21 04:11:23;;;;;;;25.37;18.47;;;;;;;;;;5049674;28;20217;-79
2023/03/21 04:13:49;;;;;;;28.70;18.10;;;;;;;;;;5047713;28;20294;-77
2023/03/21 04:16:15;;;;;;;27.87;18.33;;;;;;;;;;5047168;28;20192;-79
2023/03/21 04:18:42;;;;;;;29.60;17.80;;;;;;;;;;5056143;28;20194;-77
2023/03/21 04:21:09;;;;;;;27.77;17.20;;;;;;;;;;5055821;28;20187;-77
2023/03/21 04:23:35;;;;;;;28.03;17.27;;;;;;;;;;5036728;28;20453;-77
2023/03/21 04:26:01;;;;;;;28.47;16.80;;;;;;;;;;5030582;28;20192;-77
2023/03/21 04:28:27;;;;;;;24.10;16.80;;;;;;;;;;5056189;28;20187;-77
2023/03/21 04:30:56;;;;;;;27.30;17.50;;;;;;;;;;5055758;28;20195;-77
2023/03/21 04:33:24;;;;;;;26.03;17.47;;;;;;;;;;5055928;28;20240;-85
2023/03/21 04:35:54;;;;;;;29.57;17.70;;;;;;;;;;5051744;28;20203;-85
2023/03/21 04:38:21;;;;;;;30.27;16.97;;;;;;;;;;5073882;28;20252;-85
2023/03/21 04:40:47;;;;;;;25.33;16.93;;;;;;;;;;5039287;28;20241;-85
2023/03/21 04:43:13;;;;;;;23.23;16.23;;;;;;;;;;5036292;28;20217;-85
2023/03/21 04:45:39;;;;;;;25.20;15.93;;;;;;;;;;5052549;28;20191;-85
2023/03/21 04:48:05;;;;;;;27.33;17.13;;;;;;;;;;5055619;28;20288;-85
2023/03/21 04:50:31;;;;;;;22.47;15.80;;;;;;;;;;5039340;28;20199;-85
2023/03/21 04:52:57;;;;;;;24.53;15.80;;;;;;;;;;5039410;28;20259;-85
2023/03/21 04:55:25;;;;;;;25.80;16.80;;;;;;;;;;5054881;28;20214;-84
2023/03/21 04:57:51;;;;;;;24.23;16.20;;;;;;;;;;5043806;28;20182;-85
2023/03/21 05:00:17;;;;;;;25.80;18.33;;;;;;;;;;5051536;28;20488;-85
2023/03/21 05:02:45;;;;;;;27.63;17.00;;;;;;;;;;5056967;28;20182;-85
2023/03/21 05:05:12;;;;;;;26.53;15.97;;;;;;;;;;5059776;28;20187;-85
2023/03/21 05:07:38;;;;;;;27.13;16.13;;;;;;;;;;5033826;28;20195;-84
2023/03/21 05:10:05;;;;;;;24.73;16.33;;;;;;;;;;5056631;28;20183;-85
2023/03/21 05:12:31;;;;;;;28.98;17.90;;;;;;;;;;5056245;28;20411;-84
2023/03/21 05:14:57;;;;;;;23.30;16.90;;;;;;;;;;5057522;28;20203;-85
2023/03/21 05:17:23;;;;;;;28.13;16.83;;;;;;;;;;5032687;28;20180;-84
2023/03/21 05:19:51;;;;;;;25.10;17.73;;;;;;;;;;5024634;28;20187;-84
2023/03/21 05:22:18;;;;;;;29.67;16.63;;;;;;;;;;5041360;28;20168;-85
2023/03/21 05:24:49;;;;;;;26.67;17.37;;;;;;;;;;5049203;28;20184;-81
2023/03/21 05:27:32;;;;;;;28.37;17.00;;;;;;;;;;5059682;28;20207;-81
2023/03/21 05:29:59;;;;;;;26.13;17.20;;;;;;;;;;5059264;28;20265;-81
2023/03/21 05:32:25;;;;;;;25.33;17.23;;;;;;;;;;5059657;28;20190;-81
2023/03/21 05:34:51;;;;;;;27.30;16.80;;;;;;;;;;5058918;28;20211;-81
2023/03/21 05:37:17;;;;;;;25.13;16.37;;;;;;;;;;5075876;28;20185;-81
2023/03/21 05:39:43;;;;;;;28.40;17.37;;;;;;;;;;5039523;28;20184;-77
2023/03/21 05:42:09;;;;;;;33.93;16.97;;;;;;;;;;5040233;28;20237;-77
2023/03/21 05:44:36;;;;;;;28.33;15.33;;;;;;;;;;5039202;28;20233;-77
2023/03/21 05:47:03;;;;;;;27.47;16.10;;;;;;;;;;5043324;28;20195;-77
2023/03/21 05:49:29;;;;;;;29.23;16.47;;;;;;;;;;5059518;28;20222;-77
2023/03/21 05:51:55;;;;;;;28.27;16.47;;;;;;;;;;5059612;28;20183;-77
2023/03/21 05:54:21;;;;;;;24.43;15.97;;;;;;;;;;5055312;28;20220;-77
2023/03/21 05:56:47;;;;;;;26.40;15.77;;;;;;;;;;5039235;28;20203;-81
2023/03/21 05:59:14;;;;;;;26.40;15.40;;;;;;;;;;5039118;28;20184;-81
2023/03/21 06:01:40;;;;;;;24.10;15.40;;;;;;;;;;5038817;28;20196;-81
2023/03/21 06:04:06;;;;;;;28.40;16.10;;;;;;;;;;5039042;28;20207;-81
2023/03/21 06:06:32;;;;;;;32.17;16.60;;;;;;;;;;5022774;28;20280;-81
2023/03/21 06:08:58;;;;;;;27.60;16.83;;;;;;;;;;5046787;28;20190;-81
2023/03/21 06:11:25;;;;;;;26.87;15.60;;;;;;;;;;5047861;28;20180;-82
2023/03/21 06:13:51;;;;;;;28.67;17.57;;;;;;;;;;5063736;28;20221;-84
2023/03/21 06:16:17;;;;;;;24.93;16.57;;;;;;;;;;5049132;28;20182;-84
2023/03/21 06:18:43;;;;;;;31.90;16.30;;;;;;;;;;5029019;28;20179;-78
2023/03/21 06:21:09;;;;;;;30.67;16.20;;;;;;;;;;5031393;28;20172;-78
2023/03/21 06:23:36;;;;;;;28.40;16.50;;;;;;;;;;5032648;28;20233;-78
2023/03/21 06:26:02;;;;;;;29.07;16.33;;;;;;;;;;5031364;28;20191;-79
2023/03/21 06:28:28;;;;;;;28.10;16.00;;;;;;;;;;5064144;28;20266;-79
2023/03/21 06:30:54;;;;;;;24.23;16.37;;;;;;;;;;5050568;28;20188;-83
2023/03/21 06:33:20;;;;;;;28.83;16.57;;;;;;;;;;5069500;28;20215;-82
2023/03/21 06:35:54;;;;;;;25.03;16.03;;;;;;;;;;5067790;28;20180;-82
2023/03/21 06:38:20;;;;;;;26.10;15.80;;;;;;;;;;5068030;28;20175;-82
2023/03/21 06:40:46;;;;;;;27.30;15.50;;;;;;;;;;5069682;28;20317;-82
2023/03/21 06:43:12;;;;;;;27.10;16.60;;;;;;;;;;5052665;28;20194;-83
2023/03/21 06:45:39;;;;;;;25.70;15.67;;;;;;;;;;5048624;28;20180;-82
2023/03/21 06:48:08;;;;;;;24.70;15.73;;;;;;;;;;5066482;28;20214;-85
2023/03/21 06:50:34;;;;;;;28.30;15.33;;;;;;;;;;5048347;28;20175;-85
2023/03/21 06:53:00;;;;;;;24.90;15.47;;;;;;;;;;5049069;28;20195;-86
2023/03/21 06:55:27;;;;;;;26.50;15.43;;;;;;;;;;5065341;28;20207;-85
2023/03/21 06:57:54;;;;;;;26.90;15.47;;;;;;;;;;5048372;28;20282;-85
2023/03/21 07:00:23;;;;;;;28.10;14.87;;;;;;;;;;5033033;28;20227;-84
2023/03/21 07:02:49;;;;;;;32.40;15.30;;;;;;;;;;5050059;28;20183;-78
2023/03/21 07:05:16;;;;;;;23.53;14.60;;;;;;;;;;5040654;28;20202;-78
2023/03/21 07:07:42;;;;;;;22.43;14.87;;;;;;;;;;5066250;28;20217;-78
2023/03/21 07:10:08;;;;;;;25.30;15.23;;;;;;;;;;5037100;28;20203;-78
2023/03/21 07:12:35;;;;;;;23.27;14.00;;;;;;;;;;5067133;28;20184;-77
2023/03/21 07:15:05;;;;;;;22.73;14.60;;;;;;;;;;5034245;28;20234;-78
2023/03/21 07:17:32;;;;;;;23.03;14.37;;;;;;;;;;5052095;28;20172;-77
2023/03/21 07:19:58;;;;;;;25.40;14.60;;;;;;;;;;5070904;28;20200;-81
2023/03/21 07:22:24;;;;;;;23.27;14.70;;;;;;;;;;5057256;28;20222;-81
2023/03/21 07:24:50;;;;;;;21.43;13.97;;;;;;;;;;5071745;28;20232;-81
2023/03/21 07:27:17;;;;;;;24.87;14.30;;;;;;;;;;5026488;28;20218;-81
2023/03/21 07:29:45;;;;;;;21.27;13.57;;;;;;;;;;5070939;28;20176;-81
2023/03/21 07:32:11;;;;;;;21.97;13.33;;;;;;;;;;5055445;28;20183;-81
2023/03/21 07:34:37;;;;;;;26.57;13.93;;;;;;;;;;5037268;28;20207;-80
2023/03/21 07:37:05;;;;;;;21.43;13.87;;;;;;;;;;5037395;28;20238;-76
2023/03/21 07:39:33;;;;;;;18.70;12.93;;;;;;;;;;5020716;28;20181;-77
2023/03/21 07:41:59;;;;;;;24.00;13.20;;;;;;;;;;5040404;28;20210;-77
2023/03/21 07:44:25;;;;;;;23.20;13.20;;;;;;;;;;5074713;28;20190;-77
2023/03/21 07:46:51;;;;;;;20.00;12.50;;;;;;;;;;5039869;28;20213;-77
2023/03/21 07:49:17;;;;;;;21.27;12.10;;;;;;;;;;5032240;23;20247;-81
2023/03/21 07:51:43;;;;;;;20.27;12.57;;;;;;;;;;4997012;28;20196;-80
2023/03/21 07:54:09;;;;;;;19.20;11.30;;;;;;;;;;4999850;28;20217;-77
2023/03/21 07:56:35;;;;;;;16.77;11.23;;;;;;;;;;5008135;28;20196;-77
2023/03/21 07:59:01;;;;;;;19.87;11.47;;;;;;;;;;5016297;28;20184;-77
2023/03/21 08:01:27;;;;;;;18.87;11.33;;;;;;;;;;5025582;28;20188;-77
2023/03/21 08:03:53;;;;;;;18.33;11.70;;;;;;;;;;5033861;28;20180;-78
2023/03/21 08:06:19;;;;;;;18.67;11.43;;;;;;;;;;5016498;28;20237;-77
2023/03/21 08:08:46;;;;;;;16.93;10.30;;;;;;;;;;5016496;28;20189;-77
2023/03/21 08:11:12;;;;;;;21.13;11.90;;;;;;;;;;5015185;28;20192;-81
2023/03/21 08:13:38;;;;;;;22.97;11.73;;;;;;;;;;5028920;28;20184;-81
2023/03/21 08:16:05;;;;;;;18.53;11.03;;;;;;;;;;5032054;28;20242;-80
2023/03/21 08:18:31;;;;;;;18.20;11.23;;;;;;;;;;5014679;28;20216;-80
2023/03/21 08:20:57;;;;;;;21.60;11.90;;;;;;;;;;5030308;28;20188;-81
2023/03/21 08:23:24;;;;;;;19.97;12.00;;;;;;;;;;5026847;28;20180;-79
2023/03/21 08:25:54;;;;;;;23.53;11.70;;;;;;;;;;5032576;28;20177;-80
2023/03/21 08:28:21;;;;;;;18.77;11.60;;;;;;;;;;5014803;28;20192;-77
2023/03/21 08:30:47;;;;;;;18.73;10.90;;;;;;;;;;5016233;28;20193;-77
2023/03/21 08:33:13;;;;;;;20.30;11.60;;;;;;;;;;5027770;28;20184;-78
2023/03/21 08:35:39;;;;;;;20.17;10.93;;;;;;;;;;5034367;28;20215;-77
2023/03/21 08:38:06;;;;;;;17.67;10.87;;;;;;;;;;5029194;28;20237;-76
2023/03/21 08:40:33;;;;;;;18.43;10.93;;;;;;;;;;5022629;28;20192;-77
2023/03/21 08:42:59;;;;;;;17.83;11.43;;;;;;;;;;5023248;28;20177;-81
2023/03/21 08:45:25;;;;;;;20.23;10.77;;;;;;;;;;5033267;28;20208;-81
2023/03/21 08:47:52;;;;;;;22.40;11.70;;;;;;;;;;5041691;28;20314;-81
2023/03/21 08:50:22;;;;;;;19.63;11.10;;;;;;;;;;5044242;28;20192;-81
2023/03/21 08:52:48;;;;;;;20.13;10.40;;;;;;;;;;5047538;28;20253;-81
2023/03/21 08:55:15;;;;;;;19.43;10.07;;;;;;;;;;5052137;28;20210;-80
2023/03/21 08:57:41;;;;;;;19.73;10.60;;;;;;;;;;5056215;28;20179;-81
2023/03/21 09:00:13;;;;;;;20.60;10.30;;;;;;;;;;5034727;28;20191;-77
2023/03/21 09:02:39;;;;;;;16.00;10.00;;;;;;;;;;5058309;28;20179;-77
2023/03/21 09:05:06;;;;;;;19.10;10.53;;;;;;;;;;5051481;28;20183;-77
2023/03/21 09:07:35;;;;;;;20.73;10.37;;;;;;;;;;5038226;28;20192;-77
2023/03/21 09:10:01;;;;;;;21.83;10.33;;;;;;;;;;5039914;28;20179;-77
2023/03/21 09:12:27;;;;;;;17.77;10.20;;;;;;;;;;5051182;28;20184;-77
2023/03/21 09:14:53;;;;;;;19.53;10.77;;;;;;;;;;5053496;28;20220;-77
2023/03/21 09:17:19;;;;;;;19.00;10.43;;;;;;;;;;5051900;28;20211;-81
2023/03/21 09:19:46;;;;;;;19.40;10.43;;;;;;;;;;5054851;28;20233;-81
2023/03/21 09:22:16;;;;;;;17.27;10.60;;;;;;;;;;5059947;28;20211;-80
2023/03/21 09:24:46;;;;;;;17.20;10.43;;;;;;;;;;5041255;28;20196;-81
2023/03/21 09:27:14;;;;;;;21.87;11.10;;;;;;;;;;5039717;28;20188;-81
2023/03/21 09:29:43;;;;;;;15.67;10.67;;;;;;;;;;5043372;28;20195;-82
2023/03/21 09:32:09;;;;;;;21.83;10.77;;;;;;;;;;5024014;28;20189;-81
2023/03/21 09:34:38;;;;;;;17.10;10.93;;;;;;;;;;5039220;28;20212;-77
2023/03/21 09:37:08;;;;;;;16.30;10.73;;;;;;;;;;5048608;28;20177;-77
2023/03/21 09:39:35;;;;;;;21.33;11.50;;;;;;;;;;5039766;28;20291;-77
2023/03/21 09:42:14;;;;;;;16.77;10.93;;;;;;;;;;5045713;28;20183;-77
2023/03/21 09:44:48;;;;;;;17.13;11.10;;;;;;;;;;5059371;28;20179;-77
2023/03/21 09:47:20;;;;;;;20.13;11.77;;;;;;;;;;5051781;28;20193;-77
2023/03/21 09:49:58;;;;;;;15.80;10.10;;;;;;;;;;5074604;28;20233;-77
2023/03/21 09:52:27;;;;;;;17.00;11.13;;;;;;;;;;5075420;28;20185;-78
2023/03/21 09:54:55;;;;;;;18.53;10.60;;;;;;;;;;5043360;28;20204;-77
2023/03/21 09:57:30;;;;;;;17.70;10.07;;;;;;;;;;5076777;28;20172;-77
2023/03/21 09:59:57;;;;;;;17.43;10.37;;;;;;;;;;5058821;28;20237;-77
2023/03/21 10:02:44;;;;;;;19.50;11.37;;;;;;;;;;5038952;28;20184;-77
2023/03/21 10:05:12;;;;;;;17.57;11.23;;;;;;;;;;5060251;28;20186;-77
2023/03/21 10:07:46;;;;;;;17.67;11.60;;;;;;;;;;5075098;28;20218;-77
2023/03/21 10:10:22;;;;;;;20.00;11.10;;;;;;;;;;5054649;28;20189;-77
2023/03/21 10:12:48;;;;;;;18.77;11.20;;;;;;;;;;5056467;28;20171;-77
2023/03/21 10:15:15;;;;;;;17.90;10.83;;;;;;;;;;5055115;28;20207;-77
2023/03/21 10:17:44;;;;;;;15.80;10.50;;;;;;;;;;5051835;28;20202;-78
2023/03/21 10:20:20;;;;;;;14.50;10.73;;;;;;;;;;5076359;28;20206;-77
2023/03/21 10:22:47;;;;;;;16.83;9.67;;;;;;;;;;5058466;28;20228;-79
2023/03/21 10:25:16;;;;;;;13.67;9.93;;;;;;;;;;5075206;28;20186;-80
2023/03/21 10:27:42;;;;;;;15.60;10.10;;;;;;;;;;5057780;28;20179;-80
2023/03/21 10:30:12;;;;;;;13.80;9.60;;;;;;;;;;5074768;28;20224;-80
2023/03/21 10:32:38;;;;;;;13.90;9.23;;;;;;;;;;5054705;28;20188;-80
2023/03/21 10:35:04;;;;;;;12.70;8.97;;;;;;;;;;5057807;28;20219;-81
2023/03/21 10:37:31;;;;;;;11.33;8.80;;;;;;;;;;5058210;28;20187;-80
2023/03/21 10:39:57;;;;;;;13.17;8.87;;;;;;;;;;5057929;28;20175;-77
2023/03/21 10:42:29;;;;;;;14.23;8.57;;;;;;;;;;5075546;28;20194;-77
2023/03/21 10:44:56;;;;;;;12.80;8.77;;;;;;;;;;5057961;28;20275;-77
2023/03/21 10:47:26;;;;;;;13.63;8.80;;;;;;;;;;5057489;28;20278;-77
2023/03/21 10:49:53;;;;;;;12.27;8.07;;;;;;;;;;5075383;28;20249;-77
2023/03/21 10:52:21;;;;;;;15.47;8.10;;;;;;;;;;5075141;28;20243;-77
2023/03/21 10:54:47;;;;;;;13.37;8.53;;;;;;;;;;5075224;28;20229;-77
2023/03/21 10:57:20;;;;;;;15.43;8.53;;;;;;;;;;5037590;28;20180;-79
2023/03/21 10:59:52;;;;;;;17.17;8.83;;;;;;;;;;5050050;28;20190;-79
2023/03/21 11:02:30;;;;;;;14.20;8.87;;;;;;;;;;5057182;28;20261;-79
2023/03/21 11:04:57;;;;;;;14.30;9.20;;;;;;;;;;5056398;28;20183;-81
2023/03/21 11:07:29;;;;;;;14.87;8.60;;;;;;;;;;5055962;28;20193;-81
2023/03/21 11:09:57;;;;;;;12.67;8.53;;;;;;;;;;5056059;28;20171;-80
2023/03/21 11:12:32;;;;;;;13.47;8.67;;;;;;;;;;5056973;28;20187;-80
2023/03/21 11:15:13;;;;;;;11.03;8.53;;;;;;;;;;5056707;28;20225;-77
2023/03/21 11:17:40;;;;;;;14.70;8.17;;;;;;;;;;5056134;28;20198;-77
2023/03/21 11:20:10;;;;;;;15.00;8.40;;;;;;;;;;5057006;28;20175;-77
2023/03/21 11:22:42;;;;;;;15.07;8.47;;;;;;;;;;5056800;28;20180;-77
2023/03/21 11:25:10;;;;;;;13.73;7.97;;;;;;;;;;5074705;28;20172;-77
2023/03/21 11:27:46;;;;;;;13.20;8.43;;;;;;;;;;5075071;28;20172;-77
2023/03/21 11:30:19;;;;;;;16.70;8.33;;;;;;;;;;5055874;28;20266;-77
2023/03/21 11:32:45;;;;;;;11.20;8.30;;;;;;;;;;5047988;28;20195;-77
2023/03/21 11:35:31;;;;;;;14.47;8.37;;;;;;;;;;5032838;28;20215;-77
2023/03/21 11:37:57;;;;;;;10.40;7.10;;;;;;;;;;5063722;28;20184;-77
2023/03/21 11:40:26;;;;;;;13.57;7.00;;;;;;;;;;5057053;28;20316;-77
2023/03/21 11:42:53;;;;;;;13.53;7.40;;;;;;;;;;5056981;28;20175;-76
2023/03/21 11:45:19;;;;;;;9.47;7.17;;;;;;;;;;5056284;28;20202;-77
2023/03/21 11:47:46;;;;;;;11.83;7.67;;;;;;;;;;5074550;28;20175;-84
2023/03/21 11:50:28;;;;;;;11.23;7.10;;;;;;;;;;5052722;28;20234;-83
2023/03/21 11:53:01;;;;;;;13.70;7.50;;;;;;;;;;5036925;28;20182;-84
2023/03/21 11:55:36;;;;;;;11.73;7.60;;;;;;;;;;5068856;28;20210;-84
2023/03/21 11:58:20;;;;;;;11.50;7.17;;;;;;;;;;5056147;28;20183;-84
2023/03/21 12:00:46;;;;;;;11.97;7.07;;;;;;;;;;5066788;28;20180;-84
2023/03/21 12:03:31;;;;;;;11.57;7.10;;;;;;;;;;5067337;28;20176;-76
2023/03/21 12:06:01;;;;;;;11.73;7.03;;;;;;;;;;5054782;28;20228;-77
2023/03/21 12:08:43;;;;;;;12.33;7.07;;;;;;;;;;5055957;28;20187;-77
2023/03/21 12:11:19;;;;;;;10.90;7.50;;;;;;;;;;5054647;28;20187;-77
2023/03/21 12:13:45;;;;;;;13.40;6.90;;;;;;;;;;5055797;28;20217;-77
2023/03/21 12:16:30;;;;;;;10.20;6.77;;;;;;;;;;5073815;28;20207;-78
2023/03/21 12:19:14;;;;;;;15.80;7.63;;;;;;;;;;5070135;28;20178;-77
2023/03/21 12:21:59;;;;;;;10.10;6.30;;;;;;;;;;5055776;28;20175;-77
2023/03/21 12:24:34;;;;;;;11.20;6.53;;;;;;;;;;5039295;28;20179;-77
2023/03/21 12:27:04;;;;;;;10.30;6.50;;;;;;;;;;5055685;28;20218;-77
2023/03/21 12:29:41;;;;;;;12.70;6.80;;;;;;;;;;5056153;28;20183;-77
2023/03/21 12:32:16;;;;;;;11.37;6.80;;;;;;;;;;5073127;28;20197;-77
2023/03/21 12:34:45;;;;;;;9.83;6.30;;;;;;;;;;5055950;28;20217;-77
2023/03/21 12:37:18;;;;;;;12.80;6.80;;;;;;;;;;5056272;28;20171;-77
2023/03/21 12:39:46;;;;;;;12.20;6.77;;;;;;;;;;5072770;28;20233;-77
2023/03/21 12:42:44;;;;;;;9.77;6.10;;;;;;;;;;5074134;28;20171;-76
2023/03/21 12:45:18;;;;;;;10.80;6.67;;;;;;;;;;5023519;28;20205;-77
2023/03/21 12:47:51;;;;;;;11.10;6.83;;;;;;;;;;5073676;28;20182;-77
2023/03/21 12:50:35;;;;;;;12.73;6.63;;;;;;;;;;5056064;28;20215;-76
2023/03/21 12:53:21;;;;;;;10.60;6.93;;;;;;;;;;5073122;28;20171;-83
2023/03/21 12:55:47;;;;;;;11.63;6.50;;;;;;;;;;5072135;28;20195;-83
2023/03/21 12:58:19;;;;;;;14.77;7.10;;;;;;;;;;5036211;28;20192;-84
2023/03/21 13:00:55;;;;;;;14.57;6.83;;;;;;;;;;5046859;28;20180;-84
2023/03/21 13:03:30;;;;;;;11.43;6.23;;;;;;;;;;5035886;28;20175;-84
2023/03/21 13:05:58;;;;;;;11.00;6.43;;;;;;;;;;5051941;28;20182;-84
2023/03/21 13:08:30;;;;;;;8.47;6.27;;;;;;;;;;5054729;28;20183;-84
2023/03/21 13:10:57;;;;;;;11.73;6.73;;;;;;;;;;5052622;28;20175;-77
2023/03/21 13:13:35;;;;;;;11.13;6.70;;;;;;;;;;5054247;28;20187;-77
2023/03/21 13:16:04;;;;;;;13.07;6.80;;;;;;;;;;5054734;28;20221;-77
2023/03/21 13:18:55;;;;;;;14.90;7.43;;;;;;;;;;5054769;28;20251;-78
2023/03/21 13:21:28;;;;;;;15.57;7.30;;;;;;;;;;5054370;28;20401;-78
2023/03/21 13:23:58;;;;;;;11.63;7.00;;;;;;;;;;5051752;28;20183;-77
2023/03/21 13:26:32;;;;;;;11.20;6.77;;;;;;;;;;5056772;28;20186;-83
2023/03/21 13:28:58;;;;;;;13.03;7.00;;;;;;;;;;5059361;28;20180;-84
2023/03/21 13:31:25;;;;;;;11.37;7.03;;;;;;;;;;5058921;28;20198;-84
2023/03/21 13:33:53;;;;;;;13.50;6.63;;;;;;;;;;5058934;28;20179;-83
2023/03/21 13:36:30;;;;;;;11.67;6.90;;;;;;;;;;5058136;28;20183;-84
2023/03/21 13:39:04;;;;;;;10.60;6.40;;;;;;;;;;5051514;28;20187;-84
2023/03/21 13:41:42;;;;;;;12.13;6.50;;;;;;;;;;5057468;28;20270;-84
2023/03/21 13:44:16;;;;;;;10.57;6.43;;;;;;;;;;5058533;28;20194;-77
2023/03/21 13:47:05;;;;;;;9.63;6.37;;;;;;;;;;5057101;28;20191;-77
2023/03/21 13:49:33;;;;;;;9.87;5.90;;;;;;;;;;5059396;23;20227;-83
2023/03/21 13:52:01;;;;;;;9.33;5.30;;;;;;;;;;5075290;28;20187;-83
2023/03/21 13:54:28;;;;;;;9.03;5.47;;;;;;;;;;5053745;28;20260;-84
2023/03/21 13:56:59;;;;;;;8.50;5.10;;;;;;;;;;5058495;28;20178;-84
2023/03/21 13:59:37;;;;;;;9.67;4.93;;;;;;;;;;5054017;28;20183;-84
2023/03/21 14:02:16;;;;;;;9.60;5.23;;;;;;;;;;5054867;28;20191;-84
2023/03/21 14:04:43;;;;;;;7.50;5.23;;;;;;;;;;5071401;28;20175;-84
2023/03/21 14:07:12;;;;;;;10.20;5.23;;;;;;;;;;5058504;28;20183;-84
2023/03/21 14:09:46;;;;;;;9.17;5.10;;;;;;;;;;5058072;28;20187;-83
2023/03/21 14:12:18;;;;;;;11.43;4.97;;;;;;;;;;5054886;28;20187;-84
2023/03/21 14:14:50;;;;;;;8.70;4.90;;;;;;;;;;5058757;28;20214;-84
2023/03/21 14:17:27;;;;;;;8.30;5.30;;;;;;;;;;5058329;28;20206;-79
2023/03/21 14:19:54;;;;;;;9.30;5.27;;;;;;;;;;5074994;28;20175;-77
2023/03/21 14:22:21;;;;;;;11.97;5.57;;;;;;;;;;5074892;28;20175;-78
2023/03/21 14:24:57;;;;;;;8.23;5.27;;;;;;;;;;5074757;28;20229;-77
2023/03/21 14:27:25;;;;;;;11.00;5.60;;;;;;;;;;5058020;28;20186;-77
2023/03/21 14:29:52;;;;;;;6.80;4.90;;;;;;;;;;5074934;28;20236;-78
2023/03/21 14:32:22;;;;;;;7.93;5.60;;;;;;;;;;5058793;28;20224;-78